Time;durP1;ratioP1;P1;durP2;ratioP2;P2;SDS_P1;SDS_P2;PMS_P1;PMS_P2;Temp;Humidity;BMP_temperature;BMP_pressure;BME280_temperature;BME280_humidity;BME280_pressure;Samples;Min_cycle;Max_cycle;Signal;HPM_P1;HPM_P2
2023/04/19 00:01:23;;;;;;;34.15;16.40;;;7.20;99.90;;;;;;5063848;28;20100;-78
2023/04/19 00:03:49;;;;;;;31.23;15.18;;;7.20;99.90;;;;;;5062974;28;20378;-77
2023/04/19 00:06:14;;;;;;;30.45;15.88;;;7.20;99.90;;;;;;5064270;28;20021;-78
2023/04/19 00:08:41;;;;;;;29.08;15.02;;;7.20;99.90;;;;;;5062867;28;20067;-77
2023/04/19 00:11:07;;;;;;;31.40;15.02;;;7.10;99.90;;;;;;5063940;28;20045;-76
2023/04/19 00:13:33;;;;;;;31.27;14.77;;;7.10;99.90;;;;;;5063896;28;20013;-76
2023/04/19 00:15:59;;;;;;;27.23;14.45;;;7.10;99.90;;;;;;5063988;28;20409;-77
2023/04/19 00:18:24;;;;;;;30.98;14.55;;;7.10;99.90;;;;;;5063777;28;20450;-76
2023/04/19 00:20:50;;;;;;;29.73;14.75;;;7.00;99.90;;;;;;5062178;28;20060;-77
2023/04/19 00:23:16;;;;;;;28.05;14.55;;;7.00;99.90;;;;;;5062478;28;20021;-76
2023/04/19 00:25:41;;;;;;;29.10;13.77;;;6.90;99.90;;;;;;5062618;28;20482;-75
2023/04/19 00:28:07;;;;;;;34.03;15.05;;;7.00;99.90;;;;;;5063565;28;20045;-75
2023/04/19 00:30:33;;;;;;;30.67;14.90;;;7.00;99.90;;;;;;5062214;28;20025;-77
2023/04/19 00:32:58;;;;;;;30.08;14.82;;;6.90;99.90;;;;;;5062027;28;20025;-76
2023/04/19 00:35:24;;;;;;;28.75;14.05;;;6.90;99.90;;;;;;5062279;28;20017;-77
2023/04/19 00:37:50;;;;;;;29.13;14.63;;;7.00;99.90;;;;;;5063776;28;20025;-77
2023/04/19 00:40:15;;;;;;;30.25;14.07;;;6.80;99.90;;;;;;5062711;28;20037;-77
2023/04/19 00:42:41;;;;;;;27.38;14.82;;;6.80;99.90;;;;;;5062244;28;20025;-77
2023/04/19 00:45:07;;;;;;;31.73;15.30;;;6.90;99.90;;;;;;5061455;28;20528;-76
2023/04/19 00:47:34;;;;;;;29.85;14.48;;;6.80;99.90;;;;;;5061613;28;20045;-76
2023/04/19 00:50:01;;;;;;;30.23;13.48;;;6.60;99.90;;;;;;5062300;28;20466;-77
2023/04/19 00:52:26;;;;;;;27.58;14.27;;;6.70;99.90;;;;;;5061153;28;20040;-76
2023/04/19 00:54:53;;;;;;;26.40;13.63;;;6.70;99.90;;;;;;5061880;28;20029;-75
2023/04/19 00:57:20;;;;;;;30.23;14.27;;;6.70;99.90;;;;;;5063167;28;20029;-76
2023/04/19 00:59:46;;;;;;;31.25;14.50;;;6.60;99.90;;;;;;5061479;28;20033;-77
2023/04/19 01:02:12;;;;;;;30.08;14.35;;;6.50;99.90;;;;;;5060605;28;20086;-74
2023/04/19 01:04:39;;;;;;;26.30;14.00;;;6.50;99.90;;;;;;5060275;28;20033;-74
2023/04/19 01:07:05;;;;;;;33.60;14.77;;;6.50;99.90;;;;;;5062752;28;20386;-75
2023/04/19 01:09:31;;;;;;;27.58;13.98;;;6.40;99.90;;;;;;5061570;28;20056;-75
2023/04/19 01:11:57;;;;;;;28.30;13.85;;;6.40;99.90;;;;;;5062855;28;20021;-76
2023/04/19 01:14:23;;;;;;;27.25;13.20;;;6.40;99.90;;;;;;5061198;28;20057;-74
2023/04/19 01:16:49;;;;;;;23.15;12.57;;;6.40;99.90;;;;;;5062803;28;20025;-75
2023/04/19 01:19:15;;;;;;;28.80;12.85;;;6.40;99.90;;;;;;5062804;28;20032;-75
2023/04/19 01:21:42;;;;;;;25.55;12.57;;;6.30;99.90;;;;;;5061320;28;21064;-75
2023/04/19 01:24:08;;;;;;;24.42;12.65;;;6.30;99.90;;;;;;5061998;28;20028;-76
2023/04/19 01:26:34;;;;;;;23.75;13.02;;;6.30;99.90;;;;;;5062569;28;20082;-75
2023/04/19 01:29:00;;;;;;;24.23;13.25;;;6.30;99.90;;;;;;5062520;28;20069;-76
2023/04/19 01:31:25;;;;;;;26.85;12.07;;;6.20;99.90;;;;;;5061757;28;20017;-77
2023/04/19 01:33:51;;;;;;;30.42;12.90;;;6.20;99.90;;;;;;5061085;28;20032;-75
2023/04/19 01:36:16;;;;;;;23.10;11.88;;;6.10;99.90;;;;;;5061244;28;20021;-76
2023/04/19 01:38:42;;;;;;;26.83;12.30;;;6.10;99.90;;;;;;5062703;28;20037;-74
2023/04/19 01:41:08;;;;;;;26.95;11.85;;;6.00;99.90;;;;;;5060571;28;20033;-75
2023/04/19 01:43:33;;;;;;;24.70;12.05;;;6.00;99.90;;;;;;5061672;28;20017;-76
2023/04/19 01:45:59;;;;;;;24.98;12.18;;;6.00;99.90;;;;;;5060381;28;20044;-74
2023/04/19 01:48:24;;;;;;;24.83;12.13;;;5.90;99.90;;;;;;5062093;28;20041;-75
2023/04/19 01:50:50;;;;;;;22.08;11.82;;;5.90;99.90;;;;;;5061963;28;20051;-75
2023/04/19 01:53:16;;;;;;;22.38;11.88;;;5.90;99.90;;;;;;5062130;28;20025;-75
2023/04/19 01:55:41;;;;;;;25.40;11.30;;;5.90;99.90;;;;;;5062148;28;20032;-75
2023/04/19 01:58:07;;;;;;;22.08;11.02;;;5.90;99.90;;;;;;5062288;28;20040;-75
2023/04/19 02:00:32;;;;;;;21.55;10.93;;;5.80;99.90;;;;;;5062103;28;20067;-74
2023/04/19 02:02:58;;;;;;;24.02;11.02;;;5.80;99.90;;;;;;5061296;28;20025;-75
2023/04/19 02:05:24;;;;;;;21.40;11.15;;;5.80;99.90;;;;;;5062120;28;20017;-77
2023/04/19 02:07:50;;;;;;;22.85;11.07;;;5.70;99.90;;;;;;5061440;28;20033;-75
2023/04/19 02:10:15;;;;;;;25.15;11.45;;;5.70;99.90;;;;;;5060849;28;20036;-75
2023/04/19 02:12:41;;;;;;;22.65;10.63;;;5.70;99.90;;;;;;5060674;28;20044;-74
2023/04/19 02:15:07;;;;;;;20.73;10.88;;;5.70;99.90;;;;;;5061957;28;20097;-75
2023/04/19 02:17:33;;;;;;;22.88;10.90;;;5.60;99.90;;;;;;5059971;28;20037;-75
2023/04/19 02:19:58;;;;;;;18.40;10.27;;;5.60;99.90;;;;;;5061589;28;20017;-76
2023/04/19 02:22:24;;;;;;;20.65;9.85;;;5.60;99.90;;;;;;5060287;28;20025;-74
2023/04/19 02:24:50;;;;;;;20.85;10.70;;;5.60;99.90;;;;;;5060450;28;20131;-75
2023/04/19 02:27:16;;;;;;;21.20;10.32;;;5.60;99.90;;;;;;5061999;28;20067;-74
2023/04/19 02:29:43;;;;;;;24.58;9.73;;;5.50;99.90;;;;;;5061416;28;20083;-74
2023/04/19 02:32:11;;;;;;;21.83;9.73;;;5.50;99.90;;;;;;5061839;28;20025;-75
2023/04/19 02:34:36;;;;;;;28.75;10.40;;;5.50;99.90;;;;;;5061433;28;20017;-74
2023/04/19 02:37:02;;;;;;;20.75;9.70;;;5.50;99.90;;;;;;5061034;28;20040;-75
2023/04/19 02:39:28;;;;;;;21.13;9.15;;;5.50;99.90;;;;;;5061479;28;20633;-76
2023/04/19 02:41:54;;;;;;;22.63;10.43;;;5.30;99.90;;;;;;5061326;28;20040;-74
2023/04/19 02:44:20;;;;;;;22.30;10.07;;;5.40;99.90;;;;;;5061080;28;20037;-75
2023/04/19 02:46:53;;;;;;;20.48;10.02;;;5.40;99.90;;;;;;5059702;28;20035;-77
2023/04/19 02:49:19;;;;;;;19.77;9.70;;;5.30;99.90;;;;;;5061600;28;20037;-76
2023/04/19 02:51:45;;;;;;;21.73;9.23;;;5.30;99.90;;;;;;5061557;28;20052;-75
2023/04/19 02:54:11;;;;;;;22.33;10.05;;;5.30;99.90;;;;;;5061224;28;20029;-75
2023/04/19 02:56:37;;;;;;;20.60;9.68;;;5.30;99.90;;;;;;5059663;28;20029;-75
2023/04/19 02:59:04;;;;;;;22.60;10.23;;;5.20;99.90;;;;;;5059986;28;20029;-75
2023/04/19 03:01:30;;;;;;;19.35;8.88;;;5.20;99.90;;;;;;5059674;28;20021;-76
2023/04/19 03:04:02;;;;;;;18.30;9.02;;;5.20;99.90;;;;;;5059606;28;20383;-75
2023/04/19 03:06:27;;;;;;;18.25;9.60;;;5.20;99.90;;;;;;5061394;28;20036;-76
2023/04/19 03:08:53;;;;;;;23.10;9.48;;;5.20;99.90;;;;;;5060939;28;20779;-76
2023/04/19 03:11:18;;;;;;;22.15;9.70;;;5.10;99.90;;;;;;5060077;28;20059;-75
2023/04/19 03:13:44;;;;;;;18.92;9.60;;;5.10;99.90;;;;;;5061557;28;20017;-76
2023/04/19 03:16:09;;;;;;;19.17;9.35;;;5.10;99.90;;;;;;5063482;28;20112;-76
2023/04/19 03:18:35;;;;;;;18.80;9.30;;;5.10;99.90;;;;;;5065176;28;20082;-75
2023/04/19 03:21:02;;;;;;;20.92;9.57;;;5.10;99.90;;;;;;5064727;28;20021;-76
2023/04/19 03:23:28;;;;;;;18.65;9.77;;;5.10;99.90;;;;;;5064748;28;20017;-76
2023/04/19 03:25:54;;;;;;;20.10;9.75;;;5.10;99.90;;;;;;5064870;28;20037;-75
2023/04/19 03:28:19;;;;;;;20.23;9.85;;;5.10;99.90;;;;;;5064902;28;20043;-76
2023/04/19 03:30:45;;;;;;;21.38;10.10;;;5.00;99.90;;;;;;5063622;28;20028;-77
2023/04/19 03:33:11;;;;;;;20.77;9.80;;;5.00;99.90;;;;;;5063172;28;20148;-75
2023/04/19 03:35:37;;;;;;;21.85;9.52;;;5.00;99.90;;;;;;5062794;28;20052;-76
2023/04/19 03:38:02;;;;;;;18.58;9.65;;;5.00;99.90;;;;;;5063411;28;20025;-76
2023/04/19 03:40:31;;;;;;;23.65;9.95;;;4.90;99.90;;;;;;5063126;28;20017;-78
2023/04/19 03:42:57;;;;;;;24.30;9.95;;;4.90;99.90;;;;;;5062695;28;20025;-76
2023/04/19 03:45:23;;;;;;;23.58;9.93;;;4.90;99.90;;;;;;5062338;28;20080;-76
2023/04/19 03:47:48;;;;;;;17.52;9.57;;;4.90;99.90;;;;;;5063345;28;20036;-76
2023/04/19 03:50:14;;;;;;;21.35;10.18;;;4.80;99.90;;;;;;5064318;28;20025;-76
2023/04/19 03:52:39;;;;;;;21.15;9.35;;;4.90;99.90;;;;;;5064242;28;20028;-76
2023/04/19 03:55:05;;;;;;;22.27;9.75;;;4.80;99.90;;;;;;5062275;28;20974;-77
2023/04/19 03:57:31;;;;;;;18.23;9.02;;;4.80;99.90;;;;;;5063560;28;20057;-75
2023/04/19 03:59:57;;;;;;;18.60;9.73;;;4.70;99.90;;;;;;5062898;28;20528;-76
2023/04/19 04:02:22;;;;;;;20.33;10.00;;;4.80;99.90;;;;;;5062964;28;20025;-77
2023/04/19 04:04:57;;;;;;;19.50;9.60;;;4.70;99.90;;;;;;5063046;28;20025;-77
2023/04/19 04:07:23;;;;;;;22.92;9.68;;;4.70;99.90;;;;;;5062045;28;20100;-78
2023/04/19 04:09:49;;;;;;;23.50;9.90;;;4.70;99.90;;;;;;5064298;28;20374;-77
2023/04/19 04:12:15;;;;;;;20.25;9.45;;;4.60;99.90;;;;;;5064005;28;20024;-76
2023/04/19 04:14:41;;;;;;;21.33;9.55;;;4.60;99.90;;;;;;5063175;28;20048;-77
2023/04/19 04:17:06;;;;;;;20.85;9.75;;;4.60;99.90;;;;;;5063894;28;20029;-76
2023/04/19 04:19:32;;;;;;;22.20;9.95;;;4.60;99.90;;;;;;5062539;28;20470;-76
2023/04/19 04:21:57;;;;;;;21.63;9.40;;;4.60;99.90;;;;;;5062143;28;20029;-77
2023/04/19 04:24:23;;;;;;;17.05;8.85;;;4.50;99.90;;;;;;5063356;28;20021;-77
2023/04/19 04:26:50;;;;;;;18.92;9.60;;;4.60;99.90;;;;;;5061255;28;20017;-76
2023/04/19 04:29:16;;;;;;;18.95;8.90;;;4.60;99.90;;;;;;5062020;28;20044;-77
2023/04/19 04:31:41;;;;;;;18.52;9.00;;;4.50;99.90;;;;;;5063306;28;20013;-75
2023/04/19 04:34:08;;;;;;;20.65;8.80;;;4.50;99.90;;;;;;5063426;28;20017;-72
2023/04/19 04:36:36;;;;;;;20.20;8.88;;;4.50;99.90;;;;;;5054649;28;20025;-72
2023/04/19 04:39:03;;;;;;;15.70;8.20;;;4.50;99.90;;;;;;5061067;28;20029;-73
2023/04/19 04:41:30;;;;;;;19.92;8.48;;;4.50;99.90;;;;;;5061386;28;20060;-73
2023/04/19 04:44:00;;;;;;;22.48;8.68;;;4.60;99.90;;;;;;5063123;28;20029;-73
2023/04/19 04:46:26;;;;;;;16.67;8.13;;;4.60;99.90;;;;;;5062196;28;20047;-72
2023/04/19 04:48:52;;;;;;;18.10;8.43;;;4.60;99.90;;;;;;5063020;28;20036;-72
2023/04/19 04:51:18;;;;;;;20.38;9.15;;;4.60;99.90;;;;;;5062614;28;20416;-73
2023/04/19 04:53:43;;;;;;;18.30;8.52;;;4.70;99.90;;;;;;5062659;28;20025;-75
2023/04/19 04:56:09;;;;;;;19.05;8.40;;;4.60;99.90;;;;;;5061433;28;20474;-73
2023/04/19 04:58:35;;;;;;;20.70;8.38;;;4.60;99.90;;;;;;5056435;28;20075;-72
2023/04/19 05:01:00;;;;;;;18.40;8.05;;;4.60;99.90;;;;;;5060370;28;20087;-73
2023/04/19 05:03:26;;;;;;;18.60;8.05;;;4.60;99.90;;;;;;5060353;28;20024;-73
2023/04/19 05:05:52;;;;;;;17.58;7.90;;;4.70;99.90;;;;;;5063042;28;20025;-74
2023/04/19 05:08:17;;;;;;;16.25;7.97;;;4.70;99.90;;;;;;5062752;28;20051;-73
2023/04/19 05:10:43;;;;;;;16.02;7.68;;;4.70;99.90;;;;;;5063253;28;20070;-73
2023/04/19 05:13:09;;;;;;;18.80;8.32;;;4.70;99.90;;;;;;5063102;28;20086;-73
2023/04/19 05:15:34;;;;;;;19.27;7.68;;;4.70;99.90;;;;;;5061510;28;20025;-73
2023/04/19 05:18:01;;;;;;;17.52;7.57;;;4.70;99.90;;;;;;5063035;28;20124;-73
2023/04/19 05:20:28;;;;;;;17.60;7.25;;;4.70;99.90;;;;;;5055970;28;20473;-74
2023/04/19 05:22:59;;;;;;;19.55;7.63;;;4.80;99.90;;;;;;5059945;28;20036;-74
2023/04/19 05:25:26;;;;;;;16.23;7.05;;;4.80;99.90;;;;;;5062089;28;20064;-73
2023/04/19 05:27:51;;;;;;;14.80;7.22;;;4.70;99.90;;;;;;5062685;28;20494;-73
2023/04/19 05:30:17;;;;;;;12.38;6.78;;;4.70;99.90;;;;;;5055774;28;20036;-72
2023/04/19 05:32:44;;;;;;;10.35;6.35;;;4.80;99.90;;;;;;5057546;28;20616;-73
2023/04/19 05:35:10;;;;;;;14.18;6.47;;;4.80;99.90;;;;;;5061359;28;20051;-72
2023/04/19 05:37:36;;;;;;;14.02;6.80;;;4.80;99.90;;;;;;5061644;28;20023;-76
2023/04/19 05:40:08;;;;;;;15.40;6.22;;;4.90;99.90;;;;;;5061631;28;20031;-74
2023/04/19 05:42:34;;;;;;;15.82;6.25;;;4.90;99.90;;;;;;5057809;28;20496;-72
2023/04/19 05:45:00;;;;;;;15.43;5.95;;;4.90;99.90;;;;;;5060782;28;20069;-71
2023/04/19 05:47:25;;;;;;;13.43;6.38;;;5.00;99.90;;;;;;5061675;28;20052;-71
2023/04/19 05:49:51;;;;;;;14.35;6.32;;;5.10;99.90;;;;;;5062384;28;20021;-72
2023/04/19 05:52:17;;;;;;;14.65;6.70;;;5.10;99.90;;;;;;5062030;28;20023;-70
2023/04/19 05:54:43;;;;;;;13.88;6.35;;;5.10;99.90;;;;;;5062221;28;20531;-70
2023/04/19 05:57:09;;;;;;;12.73;6.03;;;5.20;99.90;;;;;;5061959;28;20028;-73
2023/04/19 05:59:34;;;;;;;14.48;6.07;;;5.20;99.90;;;;;;5060465;28;20033;-71
2023/04/19 06:02:00;;;;;;;10.65;5.50;;;5.30;99.90;;;;;;5060551;28;20093;-72
2023/04/19 06:04:26;;;;;;;16.83;6.30;;;5.40;99.90;;;;;;5061927;28;20017;-71
2023/04/19 06:06:52;;;;;;;11.65;5.65;;;5.40;99.90;;;;;;5062035;28;20040;-71
2023/04/19 06:09:18;;;;;;;13.25;5.95;;;5.50;99.90;;;;;;5062238;28;20033;-72
2023/04/19 06:11:44;;;;;;;11.48;5.10;;;5.50;99.90;;;;;;5062013;28;20056;-74
2023/04/19 06:14:12;;;;;;;12.90;5.13;;;5.60;99.90;;;;;;5060566;28;20033;-72
2023/04/19 06:16:38;;;;;;;9.55;4.85;;;5.60;99.90;;;;;;5061146;28;20025;-71
2023/04/19 06:19:04;;;;;;;13.43;4.72;;;5.70;99.90;;;;;;5061780;28;20029;-71
2023/04/19 06:21:30;;;;;;;16.25;5.43;;;5.80;99.90;;;;;;5061470;28;20059;-71
2023/04/19 06:23:56;;;;;;;11.10;4.55;;;5.80;99.90;;;;;;5060501;28;20049;-72
2023/04/19 06:26:21;;;;;;;7.22;4.47;;;5.80;99.90;;;;;;5060449;28;20029;-73
2023/04/19 06:28:47;;;;;;;10.05;4.82;;;5.90;99.90;;;;;;5060534;28;20033;-71
2023/04/19 06:31:12;;;;;;;8.98;4.20;;;5.90;99.90;;;;;;5061761;28;20036;-72
2023/04/19 06:33:38;;;;;;;10.18;4.22;;;6.00;99.90;;;;;;5061704;28;20029;-71
2023/04/19 06:36:04;;;;;;;8.52;4.45;;;6.10;99.90;;;;;;5060382;28;20029;-71
2023/04/19 06:38:30;;;;;;;10.73;4.82;;;6.10;99.90;;;;;;5061890;28;20036;-72
2023/04/19 06:40:55;;;;;;;7.00;3.90;;;6.10;99.90;;;;;;5059460;28;20026;-72
2023/04/19 06:43:21;;;;;;;11.65;4.03;;;6.20;99.90;;;;;;5061384;28;20041;-71
2023/04/19 06:45:47;;;;;;;12.90;4.40;;;6.30;99.90;;;;;;5061249;28;20082;-70
2023/04/19 06:48:12;;;;;;;8.55;3.60;;;6.30;99.90;;;;;;5062536;28;20095;-72
2023/04/19 06:50:38;;;;;;;11.93;3.63;;;6.40;99.90;;;;;;5064495;28;20047;-71
2023/04/19 06:53:03;;;;;;;8.68;4.07;;;6.50;99.90;;;;;;5064984;28;20029;-72
2023/04/19 06:55:29;;;;;;;14.75;3.90;;;6.50;99.90;;;;;;5065501;28;20025;-72
2023/04/19 06:57:55;;;;;;;13.48;3.78;;;6.70;99.90;;;;;;5065318;28;20021;-72
2023/04/19 07:00:21;;;;;;;6.97;3.60;;;6.90;99.90;;;;;;5065284;28;20059;-72
2023/04/19 07:02:49;;;;;;;7.43;3.83;;;6.90;99.90;;;;;;5064540;28;20029;-72
2023/04/19 07:05:15;;;;;;;5.95;3.38;;;7.00;99.90;;;;;;5065297;28;20033;-72
2023/04/19 07:07:41;;;;;;;10.13;3.75;;;7.30;99.90;;;;;;5063926;28;20127;-73
2023/04/19 07:10:07;;;;;;;5.00;3.00;;;7.30;99.90;;;;;;5065161;28;20025;-72
2023/04/19 07:12:33;;;;;;;7.53;3.83;;;7.50;99.90;;;;;;5064525;28;20037;-73
2023/04/19 07:14:59;;;;;;;5.20;3.50;;;7.60;99.90;;;;;;5064817;28;20028;-70
2023/04/19 07:17:24;;;;;;;7.45;3.58;;;7.70;99.90;;;;;;5064498;28;20024;-71
2023/04/19 07:19:50;;;;;;;6.38;3.42;;;7.90;99.90;;;;;;5063851;28;20029;-72
2023/04/19 07:22:16;;;;;;;7.68;3.40;;;8.10;99.90;;;;;;5064846;28;20060;-73
2023/04/19 07:24:43;;;;;;;4.32;2.67;;;8.20;99.90;;;;;;5065031;28;20013;-72
2023/04/19 07:27:08;;;;;;;9.23;3.10;;;8.40;99.90;;;;;;5064808;28;20033;-72
2023/04/19 07:29:35;;;;;;;4.63;2.83;;;8.60;99.90;;;;;;5063586;28;20043;-73
2023/04/19 07:32:01;;;;;;;5.63;2.60;;;8.70;99.90;;;;;;5064473;28;20512;-72
2023/04/19 07:34:26;;;;;;;7.95;3.00;;;8.90;99.90;;;;;;5064136;28;20040;-74
2023/04/19 07:36:52;;;;;;;5.03;3.08;;;9.00;99.90;;;;;;5061467;28;20029;-75
2023/04/19 07:39:17;;;;;;;9.20;2.90;;;9.10;99.90;;;;;;5062356;28;20485;-73
2023/04/19 07:41:45;;;;;;;8.05;2.47;;;9.30;99.90;;;;;;5061281;28;20125;-74
2023/04/19 07:44:12;;;;;;;5.72;2.65;;;9.40;99.90;;;;;;5063957;28;20017;-73
2023/04/19 07:46:37;;;;;;;6.93;2.50;;;9.60;99.90;;;;;;5062786;28;20112;-72
2023/04/19 07:49:03;;;;;;;7.93;2.72;;;9.70;99.90;;;;;;5062514;28;20110;-72
2023/04/19 07:51:28;;;;;;;10.50;3.03;;;9.90;99.90;;;;;;5064037;28;20064;-73
2023/04/19 07:53:54;;;;;;;5.70;3.08;;;10.00;99.90;;;;;;5060419;28;20021;-71
2023/04/19 07:56:21;;;;;;;7.28;2.70;;;10.10;99.90;;;;;;5064011;28;20082;-73
2023/04/19 07:58:47;;;;;;;9.40;2.88;;;10.20;99.90;;;;;;5062985;28;20029;-70
2023/04/19 08:01:13;;;;;;;9.93;2.50;;;10.30;99.90;;;;;;5060985;28;20067;-72
2023/04/19 08:03:38;;;;;;;3.88;2.13;;;10.40;99.90;;;;;;5062497;28;20054;-73
2023/04/19 08:06:07;;;;;;;5.95;2.78;;;10.50;99.90;;;;;;5062257;28;20056;-72
2023/04/19 08:08:32;;;;;;;4.55;2.22;;;10.70;99.90;;;;;;5061041;28;20041;-70
2023/04/19 08:10:58;;;;;;;4.30;2.47;;;10.80;99.90;;;;;;5062930;28;20020;-72
2023/04/19 08:13:23;;;;;;;4.70;2.47;;;10.90;99.90;;;;;;5057156;28;20033;-73
2023/04/19 08:15:49;;;;;;;3.72;2.13;;;11.00;99.90;;;;;;5059965;28;20057;-72
2023/04/19 08:18:14;;;;;;;4.80;2.30;;;11.10;99.90;;;;;;5060220;28;20032;-71
2023/04/19 08:20:41;;;;;;;3.97;2.55;;;11.20;99.90;;;;;;5059651;28;20159;-72
2023/04/19 08:23:07;;;;;;;3.08;2.10;;;11.30;99.90;;;;;;5062383;28;20091;-71
2023/04/19 08:25:33;;;;;;;3.05;2.10;;;11.40;99.90;;;;;;5061398;28;20029;-71
2023/04/19 08:27:59;;;;;;;3.67;2.10;;;11.70;99.90;;;;;;5059361;28;20047;-72
2023/04/19 08:30:25;;;;;;;3.60;2.03;;;11.90;99.90;;;;;;5062241;28;20025;-72
2023/04/19 08:32:51;;;;;;;4.45;1.90;;;12.10;99.90;;;;;;5061100;28;20037;-72
2023/04/19 08:35:17;;;;;;;4.82;2.25;;;12.30;99.90;;;;;;5061620;28;20048;-72
2023/04/19 08:37:42;;;;;;;3.72;2.17;;;12.40;99.90;;;;;;5060677;28;20396;-70
2023/04/19 08:40:10;;;;;;;4.20;2.10;;;12.60;99.90;;;;;;5060744;28;20079;-71
2023/04/19 08:42:35;;;;;;;4.20;2.10;;;12.70;99.90;;;;;;5058249;28;20068;-73
2023/04/19 08:45:04;;;;;;;5.97;2.30;;;12.80;99.90;;;;;;5059425;28;20045;-71
2023/04/19 08:47:32;;;;;;;6.68;2.17;;;13.00;99.90;;;;;;5060588;28;20041;-71
2023/04/19 08:50:00;;;;;;;4.30;1.98;;;13.20;99.90;;;;;;5062366;28;20025;-71
2023/04/19 08:52:26;;;;;;;3.92;1.73;;;13.30;99.90;;;;;;5063223;28;20025;-72
2023/04/19 08:54:53;;;;;;;5.10;1.88;;;13.40;99.90;;;;;;5062533;28;20029;-73
2023/04/19 08:57:19;;;;;;;3.40;1.92;;;13.50;99.90;;;;;;5063374;28;20086;-72
2023/04/19 08:59:47;;;;;;;5.18;2.28;;;13.60;99.90;;;;;;5060916;28;20055;-72
2023/04/19 09:02:14;;;;;;;2.80;1.88;;;13.60;99.90;;;;;;5060541;28;20029;-72
2023/04/19 09:04:40;;;;;;;2.88;1.88;;;13.70;99.90;;;;;;5061170;28;20032;-71
2023/04/19 09:07:07;;;;;;;5.15;2.30;;;13.90;99.90;;;;;;5061197;28;20048;-72
2023/04/19 09:09:34;;;;;;;5.13;2.25;;;14.00;99.90;;;;;;5061344;28;21461;-71
2023/04/19 09:12:00;;;;;;;2.78;2.03;;;14.00;99.90;;;;;;5061226;28;20028;-72
2023/04/19 09:14:27;;;;;;;5.82;2.50;;;14.10;99.90;;;;;;5056708;28;20025;-72
2023/04/19 09:16:53;;;;;;;3.80;2.28;;;14.20;99.90;;;;;;5060897;28;20501;-72
2023/04/19 09:19:19;;;;;;;7.22;2.10;;;14.20;99.90;;;;;;5060559;28;20017;-72
2023/04/19 09:21:45;;;;;;;3.90;1.83;;;14.10;99.90;;;;;;5059752;28;20040;-71
2023/04/19 09:24:11;;;;;;;6.53;2.42;;;14.30;99.90;;;;;;5061545;28;20033;-71
2023/04/19 09:26:36;;;;;;;3.97;2.08;;;14.40;99.90;;;;;;5060117;28;20032;-73
2023/04/19 09:29:04;;;;;;;4.00;2.40;;;14.50;99.90;;;;;;5058732;28;20044;-71
2023/04/19 09:31:34;;;;;;;9.07;2.15;;;14.60;99.90;;;;;;5056803;28;20442;-72
2023/04/19 09:34:14;;;;;;;6.07;2.30;;;14.60;99.90;;;;;;5057112;28;20025;-72
2023/04/19 09:36:40;;;;;;;5.90;2.35;;;14.80;99.90;;;;;;5059818;28;20021;-73
2023/04/19 09:39:06;;;;;;;4.10;2.33;;;14.90;99.90;;;;;;5061742;28;20036;-71
2023/04/19 09:41:40;;;;;;;4.10;2.47;;;15.00;99.90;;;;;;5062155;28;20051;-72
2023/04/19 09:44:11;;;;;;;6.32;2.70;;;15.20;99.90;;;;;;5060913;28;20044;-70
2023/04/19 09:46:37;;;;;;;11.90;3.72;;;15.40;99.90;;;;;;5061607;28;20048;-73
2023/04/19 09:49:12;;;;;;;5.63;2.10;;;15.50;99.90;;;;;;5060855;28;20033;-72
2023/04/19 09:51:45;;;;;;;3.67;2.10;;;15.60;99.90;;;;;;5055678;28;20123;-70
2023/04/19 09:54:12;;;;;;;;;;;15.80;99.90;;;;;;5058613;28;20071;-73
2023/04/19 09:56:38;;;;;;;4.22;2.50;;;15.80;99.90;;;;;;5060553;28;19939;-72
2023/04/19 09:59:05;;;;;;;4.93;2.30;;;15.70;99.90;;;;;;5057779;28;20449;-72
2023/04/19 10:01:37;;;;;;;3.65;2.28;;;15.70;99.90;;;;;;5055538;28;20051;-72
2023/04/19 10:04:08;;;;;;;5.03;2.28;;;15.90;99.90;;;;;;5061691;28;20021;-71
2023/04/19 10:06:35;;;;;;;2.72;1.95;;;16.00;99.90;;;;;;5059813;28;20033;-72
2023/04/19 10:09:03;;;;;;;4.40;1.85;;;16.10;99.90;;;;;;5059255;28;20032;-72
2023/04/19 10:11:39;;;;;;;5.72;2.00;;;16.30;99.90;;;;;;5057392;28;20037;-73
2023/04/19 10:14:10;;;;;;;3.03;1.85;;;16.30;99.90;;;;;;5059205;28;20044;-73
2023/04/19 10:16:37;;;;;;;4.25;1.90;;;16.50;99.90;;;;;;5057631;28;20031;-73
2023/04/19 10:19:15;;;;;;;4.53;1.80;;;16.60;99.90;;;;;;5057894;28;20025;-72
2023/04/19 10:21:42;;;;;;;6.10;2.08;;;16.80;99.90;;;;;;5060195;28;20055;-72
2023/04/19 10:24:08;;;;;;;3.88;1.80;;;17.00;99.90;;;;;;5059792;28;20021;-73
2023/04/19 10:27:05;;;;;;;10.82;1.85;;;17.20;99.90;;;;;;5060841;28;20017;-71
2023/04/19 10:29:50;;;;;;;2.38;1.60;;;17.30;99.90;;;;;;5058827;28;20616;-74
2023/04/19 10:32:16;;;;;;;;;;;17.40;99.90;;;;;;5058557;28;20048;-74
2023/04/19 10:34:42;;;;;;;9.65;1.95;;;17.60;99.90;;;;;;5060447;28;19931;-70
2023/04/19 10:37:12;;;;;;;2.22;1.52;;;17.70;99.90;;;;;;5060797;28;20119;-71
2023/04/19 10:39:40;;;;;;;2.25;1.73;;;17.70;99.90;;;;;;5061300;28;20028;-71
2023/04/19 10:42:05;;;;;;;4.03;1.90;;;17.80;99.90;;;;;;5059326;28;20041;-72
2023/04/19 10:44:31;;;;;;;3.47;1.50;;;17.70;99.90;;;;;;5060455;28;20092;-69
2023/04/19 10:46:58;;;;;;;3.78;2.05;;;17.70;99.90;;;;;;5056093;28;20025;-70
2023/04/19 10:49:25;;;;;;;3.50;1.88;;;17.90;99.90;;;;;;5056879;28;20067;-73
2023/04/19 10:51:53;;;;;;;5.00;1.65;;;17.90;99.90;;;;;;5056605;28;20064;-71
2023/04/19 10:54:30;;;;;;;4.22;1.80;;;17.90;99.90;;;;;;5057815;28;20029;-73
2023/04/19 10:56:59;;;;;;;2.90;1.63;;;17.70;99.90;;;;;;5058584;28;20045;-73
2023/04/19 10:59:25;;;;;;;3.47;1.50;;;17.80;99.90;;;;;;5058391;28;20033;-72
2023/04/19 11:01:59;;;;;;;3.45;1.70;;;18.10;99.90;;;;;;5059184;28;20044;-73
2023/04/19 11:04:31;;;;;;;1.98;1.38;;;18.30;99.90;;;;;;5055400;28;20038;-74
2023/04/19 11:07:01;;;;;;;2.05;1.38;;;18.50;99.90;;;;;;5056467;28;20045;-71
2023/04/19 11:09:29;;;;;;;6.45;1.83;;;18.80;99.90;;;;;;5052593;28;20070;-73
2023/04/19 11:12:09;;;;;;;6.82;1.70;;;18.80;99.90;;;;;;5057814;28;20052;-71
2023/04/19 11:14:47;;;;;;;5.50;1.60;;;18.60;99.90;;;;;;5058520;28;20048;-72
2023/04/19 11:17:27;;;;;;;2.72;1.63;;;18.70;99.90;;;;;;5059165;28;20033;-73
2023/04/19 11:20:05;;;;;;;3.35;1.42;;;18.70;99.90;;;;;;5061104;28;20029;-72
2023/04/19 11:22:33;;;;;;;5.35;1.77;;;18.80;99.90;;;;;;5060033;28;20029;-72
2023/04/19 11:25:10;;;;;;;7.45;1.77;;;18.70;99.90;;;;;;5060934;28;20021;-72
2023/04/19 11:27:37;;;;;;;2.05;1.45;;;18.80;99.90;;;;;;5061334;28;20055;-72
2023/04/19 11:30:11;;;;;;;4.00;1.65;;;18.80;99.90;;;;;;5061218;28;20032;-71
2023/04/19 11:32:43;;;;;;;11.88;1.95;;;18.80;99.90;;;;;;5061040;28;20021;-72
2023/04/19 11:35:09;;;;;;;5.10;1.58;;;18.80;99.90;;;;;;5061772;28;20121;-70
2023/04/19 11:37:36;;;;;;;10.50;1.50;;;18.80;99.90;;;;;;5064721;28;20029;-71
2023/04/19 11:40:03;;;;;;;19.20;2.00;;;18.80;99.90;;;;;;5064729;28;20021;-71
2023/04/19 11:42:29;;;;;;;2.70;1.67;;;18.80;99.90;;;;;;5064097;28;20449;-71
2023/04/19 11:44:57;;;;;;;4.35;1.55;;;18.80;99.90;;;;;;5063543;28;20064;-72
2023/04/19 11:47:22;;;;;;;3.40;1.80;;;18.80;99.90;;;;;;5063223;28;20044;-70
2023/04/19 11:49:48;;;;;;;4.78;2.00;;;19.00;99.90;;;;;;5064876;28;20021;-72
2023/04/19 11:52:23;;;;;;;3.25;2.20;;;19.10;99.90;;;;;;5063693;28;20040;-70
2023/04/19 11:54:50;;;;;;;7.18;1.95;;;19.40;99.90;;;;;;5064246;28;20110;-72
2023/04/19 11:57:27;;;;;;;8.68;2.30;;;19.60;99.90;;;;;;5064715;28;20039;-74
2023/04/19 12:00:05;;;;;;;5.35;2.00;;;19.60;99.90;;;;;;5064501;28;20108;-73
2023/04/19 12:02:36;;;;;;;4.65;1.88;;;19.80;99.90;;;;;;5063741;28;20029;-70
2023/04/19 12:05:13;;;;;;;4.85;2.30;;;20.00;99.90;;;;;;5064111;28;20025;-71
2023/04/19 12:08:02;;;;;;;7.68;2.50;;;20.20;99.90;;;;;;5063662;28;20037;-72
2023/04/19 12:10:28;;;;;;;3.53;2.30;;;20.20;98.60;;;;;;5064252;28;20493;-70
2023/04/19 12:12:54;;;;;;;5.30;2.40;;;20.20;99.90;;;;;;5063876;28;20025;-72
2023/04/19 12:15:19;;;;;;;3.92;2.35;;;20.20;99.90;;;;;;5064514;28;20025;-74
2023/04/19 12:17:56;;;;;;;6.30;2.60;;;20.20;99.90;;;;;;5064621;28;20045;-71
2023/04/19 12:20:33;;;;;;;6.40;2.50;;;20.30;98.60;;;;;;5063744;28;20044;-71
2023/04/19 12:22:59;;;;;;;5.47;2.50;;;20.30;96.50;;;;;;5063331;28;20024;-73
2023/04/19 12:25:32;;;;;;;3.63;2.47;;;20.00;97.50;;;;;;5062523;28;20028;-72
2023/04/19 12:27:59;;;;;;;9.15;2.58;;;19.90;98.70;;;;;;5062365;28;20497;-72
2023/04/19 12:30:25;;;;;;;5.60;2.67;;;19.90;98.80;;;;;;5063209;28;20488;-72
2023/04/19 12:32:54;;;;;;;4.18;2.80;;;19.90;99.30;;;;;;5062521;28;20025;-74
2023/04/19 12:35:21;;;;;;;6.93;2.53;;;20.00;99.20;;;;;;5063190;28;20371;-71
2023/04/19 12:37:47;;;;;;;6.47;2.50;;;20.30;98.50;;;;;;5063682;28;20027;-71
2023/04/19 12:40:13;;;;;;;7.68;2.60;;;20.60;99.40;;;;;;5063821;28;20051;-72
2023/04/19 12:42:39;;;;;;;9.80;2.95;;;20.80;98.60;;;;;;5061908;28;20024;-73
2023/04/19 12:45:05;;;;;;;5.50;2.80;;;20.70;98.00;;;;;;5063274;28;20072;-71